Time;durP1;ratioP1;P1;durP2;ratioP2;P2;SDS_P1;SDS_P2;PMS_P1;PMS_P2;Temp;Humidity;BMP_temperature;BMP_pressure;BME280_temperature;BME280_humidity;BME280_pressure;Samples;Min_cycle;Max_cycle;Signal;HPM_P1;HPM_P2
2021/04/17 00:00:10;;;;;;;24.35;21.98;;;;;;;5.38;79.59;100742.02;122210;1151;22530;-73
2021/04/17 00:03:02;;;;;;;22.98;20.23;;;;;;;5.35;79.44;100743.09;122246;1151;22535;-73
2021/04/17 00:05:31;;;;;;;25.38;22.75;;;;;;;5.35;79.67;100737.03;122405;1151;24693;-73
2021/04/17 00:07:59;;;;;;;26.73;23.40;;;;;;;5.35;79.83;100734.41;122392;1153;22534;-73
2021/04/17 00:10:27;;;;;;;26.48;22.90;;;;;;;5.33;79.59;100729.31;122413;1152;22536;-73
2021/04/17 00:12:58;;;;;;;27.35;24.58;;;;;;;5.34;79.83;100723.10;122108;1154;22529;-73
2021/04/17 00:15:26;;;;;;;29.40;26.25;;;;;;;5.36;79.96;100723.79;122210;1152;22535;-73
2021/04/17 00:17:54;;;;;;;31.43;28.20;;;;;;;5.37;79.70;100724.65;122294;1151;22537;-73
2021/04/17 00:20:23;;;;;;;32.00;28.68;;;;;;;5.36;79.69;100725.58;122221;1151;22523;-73
2021/04/17 00:22:52;;;;;;;32.00;28.63;;;;;;;5.36;79.75;100725.58;122447;1151;22523;-73
2021/04/17 00:25:20;;;;;;;32.05;28.80;;;;;;;5.34;80.04;100719.66;122452;1151;24833;-73
2021/04/17 00:27:49;;;;;;;34.70;28.68;;;;;;;5.34;79.80;100724.89;122199;1152;24348;-73
2021/04/17 00:30:18;;;;;;;29.87;26.90;;;;;;;5.34;79.72;100719.66;122178;1151;24376;-73
2021/04/17 00:32:46;;;;;;;27.85;25.18;;;;;;;5.33;79.78;100724.06;121982;1155;24785;-73
2021/04/17 00:35:15;;;;;;;28.83;23.17;;;;;;;5.35;79.78;100726.55;121967;1156;22561;-73
2021/04/17 00:37:44;;;;;;;27.08;21.70;;;;;;;5.36;79.77;100720.34;121672;1155;24699;-73
2021/04/17 00:40:13;;;;;;;26.05;19.35;;;;;;;5.38;79.88;100721.89;121990;1156;23316;-73
2021/04/17 00:42:41;;;;;;;27.83;21.40;;;;;;;5.40;79.85;100721.78;121971;1154;24711;-73
2021/04/17 00:45:10;;;;;;;22.25;19.18;;;;;;;5.40;79.83;100716.55;122027;1155;24707;-72
2021/04/17 00:47:41;;;;;;;26.20;20.28;;;;;;;5.42;79.82;100714.61;121985;1155;24747;-72
2021/04/17 00:50:11;;;;;;;26.30;20.60;;;;;;;5.39;79.88;100718.30;122011;1154;22547;-72
2021/04/17 00:52:41;;;;;;;28.83;22.50;;;;;;;5.37;79.76;100720.23;122484;1153;22592;-72
2021/04/17 00:55:11;;;;;;;28.08;23.38;;;;;;;5.39;79.90;100722.72;122445;1152;23566;-72
2021/04/17 00:57:39;;;;;;;26.95;22.98;;;;;;;5.41;79.85;100726.88;122416;1152;22521;-72
2021/04/17 01:00:09;;;;;;;28.07;24.20;;;;;;;5.39;79.75;100728.78;122188;1152;22547;-72
2021/04/17 01:02:56;;;;;;;31.15;24.00;;;;;;;5.40;79.91;100729.64;122454;1152;24680;-72
2021/04/17 01:05:27;;;;;;;26.65;23.88;;;;;;;5.42;80.07;100725.09;122362;1151;22751;-72
2021/04/17 01:08:00;;;;;;;31.80;25.63;;;;;;;5.44;79.73;100720.56;122419;1152;24706;-72
2021/04/17 01:10:42;;;;;;;29.80;24.98;;;;;;;5.44;79.93;100725.80;122429;1151;22527;-72
2021/04/17 01:13:11;;;;;;;35.10;24.28;;;;;;;5.44;79.81;100725.80;122406;1152;24680;-72
2021/04/17 01:15:41;;;;;;;30.55;23.90;;;;;;;5.46;79.95;100729.11;122174;1154;22567;-73
2021/04/17 01:18:10;;;;;;;27.40;22.43;;;;;;;5.47;79.81;100725.56;122387;1154;22542;-73
2021/04/17 01:20:56;;;;;;;35.60;23.05;;;;;;;5.47;79.79;100725.56;122202;1152;22559;-73
2021/04/17 01:23:34;;;;;;;28.43;21.28;;;;;;;5.46;79.79;100718.63;122431;1152;22535;-72
2021/04/17 01:26:08;;;;;;;26.63;21.73;;;;;;;5.45;79.72;100716.16;121961;1157;24897;-73
2021/04/17 01:28:43;;;;;;;29.73;20.70;;;;;;;5.43;79.85;100717.12;121954;1156;22538;-72
2021/04/17 01:31:16;;;;;;;31.80;22.10;;;;;;;5.46;79.77;100720.42;122007;1154;22617;-72
2021/04/17 01:33:50;;;;;;;28.98;20.08;;;;;;;5.46;79.56;100723.05;121693;1155;22539;-72
2021/04/17 01:36:21;;;;;;;27.98;22.90;;;;;;;5.46;79.52;100723.88;121552;1158;23010;-72
2021/04/17 01:39:03;;;;;;;24.85;19.48;;;;;;;5.45;79.55;100719.59;121473;1158;22599;-72
2021/04/17 01:41:36;;;;;;;;;;;;;;;5.37;79.16;100714.17;121627;1159;22687;-72
2021/04/17 01:44:11;;;;;;;22.48;18.65;;;;;;;5.30;79.63;100719.08;121689;1156;21342;-72
2021/04/17 01:46:56;;;;;;;26.10;17.45;;;;;;;5.31;79.61;100719.91;122007;1155;24699;-71
2021/04/17 01:49:26;;;;;;;24.93;18.90;;;;;;;5.31;79.56;100712.87;121498;1158;22707;-71
2021/04/17 01:51:57;;;;;;;26.13;20.40;;;;;;;5.32;79.63;100718.94;121589;1158;25391;-72
2021/04/17 01:54:30;;;;;;;25.50;19.75;;;;;;;5.36;79.63;100710.69;121664;1154;22546;-71
2021/04/17 01:57:03;;;;;;;24.10;19.63;;;;;;;5.38;79.62;100707.96;122071;1155;24686;-72
2021/04/17 01:59:34;;;;;;;24.45;19.85;;;;;;;5.37;79.33;100712.38;122015;1155;24741;-72
2021/04/17 02:02:04;;;;;;;22.97;19.87;;;;;;;5.37;79.26;100714.17;121822;1155;22539;-73
2021/04/17 02:04:35;;;;;;;29.20;20.20;;;;;;;5.38;79.35;100707.96;122052;1156;22562;-72
2021/04/17 02:07:04;;;;;;;23.40;19.60;;;;;;;5.38;79.34;100711.41;121767;1155;22550;-72
2021/04/17 02:09:40;;;;;;;25.95;20.28;;;;;;;5.39;79.21;100712.23;122047;1155;22639;-73
2021/04/17 02:12:10;;;;;;;26.78;18.75;;;;;;;5.41;79.23;100710.33;121657;1155;24103;-73
2021/04/17 02:14:38;;;;;;;26.55;19.50;;;;;;;5.41;79.09;100703.30;122248;1152;22545;-73
2021/04/17 02:17:25;;;;;;;21.83;17.18;;;;;;;5.43;79.08;100705.78;122230;1152;22528;-73
2021/04/17 02:20:08;;;;;;;23.45;17.20;;;;;;;5.42;78.97;100704.13;122407;1152;24465;-73
2021/04/17 02:22:38;;;;;;;22.38;18.35;;;;;;;5.41;79.15;100705.92;122377;1152;24691;-73
2021/04/17 02:25:08;;;;;;;20.58;15.45;;;;;;;5.41;78.92;100711.16;122429;1152;22813;-74
2021/04/17 02:27:37;;;;;;;21.58;15.25;;;;;;;5.42;79.15;100706.75;122171;1153;24674;-73
2021/04/17 02:30:06;;;;;;;16.05;13.73;;;;;;;5.43;78.77;100713.64;122417;1151;24423;-73
2021/04/17 02:32:35;;;;;;;19.33;13.80;;;;;;;5.40;78.78;100703.44;122332;1152;22552;-73
2021/04/17 02:35:04;;;;;;;23.08;14.15;;;;;;;5.42;78.77;100714.61;122089;1155;22546;-72
2021/04/17 02:37:32;;;;;;;17.15;12.00;;;;;;;5.40;78.66;100709.51;121990;1156;24690;-74
2021/04/17 02:40:00;;;;;;;20.80;13.35;;;;;;;5.41;78.68;100703.30;122058;1155;22543;-73
2021/04/17 02:42:29;;;;;;;17.33;12.17;;;;;;;5.39;78.54;100705.20;122006;1154;22562;-72
2021/04/17 02:44:59;;;;;;;18.60;11.23;;;;;;;5.36;78.51;100702.83;122023;1156;22543;-73
2021/04/17 02:47:28;;;;;;;17.38;11.68;;;;;;;5.33;78.47;100703.11;121667;1155;22634;-73
2021/04/17 02:49:56;;;;;;;17.15;11.73;;;;;;;5.32;78.48;100705.84;121991;1155;24690;-73
2021/04/17 02:52:25;;;;;;;20.88;11.13;;;;;;;5.31;78.53;100712.05;121665;1155;22650;-72
2021/04/17 02:54:53;;;;;;;15.00;10.63;;;;;;;5.31;78.68;100709.42;122185;1153;24673;-72
2021/04/17 02:57:21;;;;;;;18.35;10.80;;;;;;;5.30;78.71;100703.36;122393;1151;24463;-72
2021/04/17 02:59:49;;;;;;;12.98;10.23;;;;;;;5.30;78.35;100712.98;122146;1152;22534;-72
2021/04/17 03:02:18;;;;;;;21.10;10.68;;;;;;;5.30;78.50;100707.73;122456;1152;22538;-72
2021/04/17 03:04:47;;;;;;;13.30;9.55;;;;;;;5.29;78.47;100708.70;122228;1152;22527;-72
2021/04/17 03:07:15;;;;;;;13.30;8.53;;;;;;;5.29;78.31;100703.47;122488;1151;22527;-72
2021/04/17 03:09:43;;;;;;;13.03;8.65;;;;;;;5.30;78.52;100705.13;122232;1152;22528;-74
2021/04/17 03:12:12;;;;;;;22.25;10.03;;;;;;;5.29;78.36;100704.30;122118;1152;22537;-72
2021/04/17 03:14:41;;;;;;;16.35;9.48;;;;;;;5.31;78.44;100709.42;122449;1152;22546;-73
2021/04/17 03:17:10;;;;;;;18.68;10.85;;;;;;;5.31;78.36;100712.05;122114;1154;22542;-74
2021/04/17 03:19:38;;;;;;;17.65;10.88;;;;;;;5.33;78.37;100712.73;122127;1154;24684;-72
2021/04/17 03:22:07;;;;;;;18.10;11.05;;;;;;;5.33;78.37;100713.59;122209;1152;23319;-72
2021/04/17 03:24:37;;;;;;;13.58;9.78;;;;;;;5.37;78.50;100722.03;122381;1152;22543;-73
2021/04/17 03:27:06;;;;;;;19.57;11.47;;;;;;;5.39;78.37;100730.58;121662;1155;22557;-73
2021/04/17 03:29:35;;;;;;;15.70;10.95;;;;;;;5.36;78.22;100721.17;121720;1156;24799;-72
2021/04/17 03:32:05;;;;;;;15.10;9.98;;;;;;;5.33;77.97;100729.31;121972;1155;22550;-72
2021/04/17 03:34:33;;;;;;;18.58;10.83;;;;;;;5.31;77.99;100731.20;121995;1155;22648;-72
2021/04/17 03:37:02;;;;;;;15.98;10.83;;;;;;;5.31;78.27;100733.00;121981;1156;22634;-72
2021/04/17 03:39:30;;;;;;;15.07;11.17;;;;;;;5.30;77.90;100728.70;122005;1154;24364;-72
2021/04/17 03:41:58;;;;;;;16.85;9.85;;;;;;;5.30;78.15;100732.17;122000;1155;23329;-72
2021/04/17 03:44:26;;;;;;;13.83;10.43;;;;;;;5.32;78.12;100738.10;122076;1154;22545;-73
2021/04/17 03:46:55;;;;;;;13.73;9.03;;;;;;;5.31;77.94;100731.20;122379;1153;22529;-71
2021/04/17 03:49:23;;;;;;;14.00;8.93;;;;;;;5.29;77.88;100732.28;122372;1152;24371;-71
2021/04/17 03:51:52;;;;;;;13.53;9.43;;;;;;;5.26;77.69;100732.53;122482;1152;22532;-72
2021/04/17 03:54:20;;;;;;;15.48;10.40;;;;;;;5.20;77.66;100739.11;122371;1152;22536;-73
2021/04/17 03:56:49;;;;;;;16.15;9.50;;;;;;;5.16;77.84;100735.05;122233;1152;22532;-75
2021/04/17 03:59:17;;;;;;;17.08;9.58;;;;;;;5.17;77.98;100741.98;122431;1152;22531;-75
2021/04/17 04:01:46;;;;;;;16.85;10.35;;;;;;;5.17;77.90;100741.98;122388;1153;22531;-72
2021/04/17 04:04:15;;;;;;;16.50;10.27;;;;;;;5.16;78.01;100741.15;122310;1152;22534;-72
2021/04/17 04:06:44;;;;;;;16.68;10.43;;;;;;;5.16;77.68;100743.77;122453;1152;22618;-72
2021/04/17 04:09:12;;;;;;;16.30;10.55;;;;;;;5.16;77.63;100749.01;122178;1152;22614;-72
2021/04/17 04:11:45;;;;;;;15.83;10.10;;;;;;;5.15;77.87;100741.25;122496;1152;22586;-72
2021/04/17 04:14:13;;;;;;;17.35;11.23;;;;;;;5.16;77.84;100742.91;122368;1152;22658;-72
2021/04/17 04:16:42;;;;;;;17.07;12.30;;;;;;;5.16;77.91;100751.63;122178;1152;24526;-72
2021/04/17 04:19:11;;;;;;;25.83;13.83;;;;;;;5.18;77.94;100756.73;121676;1154;22574;-72
2021/04/17 04:21:43;;;;;;;16.57;12.03;;;;;;;5.17;77.82;100750.66;121991;1154;22546;-72
2021/04/17 04:24:11;;;;;;;20.25;11.33;;;;;;;5.15;77.65;100755.17;121988;1154;22554;-72
2021/04/17 04:26:42;;;;;;;18.73;12.08;;;;;;;5.14;77.77;100750.91;121804;1155;22566;-72
2021/04/17 04:29:10;;;;;;;18.97;12.37;;;;;;;5.15;77.96;100756.97;122053;1155;22556;-71
2021/04/17 04:31:41;;;;;;;19.93;12.13;;;;;;;5.17;77.84;100757.69;121641;1155;22560;-72
2021/04/17 04:34:10;;;;;;;18.73;13.23;;;;;;;5.18;77.99;100759.34;121968;1155;22549;-71
2021/04/17 04:36:38;;;;;;;14.10;11.60;;;;;;;5.21;77.84;100758.28;122048;1155;22956;-71
2021/04/17 04:39:06;;;;;;;18.95;13.53;;;;;;;5.19;77.81;100758.38;121959;1155;22920;-71
2021/04/17 04:41:36;;;;;;;21.10;13.63;;;;;;;5.20;77.83;100765.30;121946;1155;22546;-72
2021/04/17 04:44:05;;;;;;;22.35;15.25;;;;;;;5.18;77.76;100762.79;122108;1152;22668;-72
2021/04/17 04:46:34;;;;;;;22.80;16.88;;;;;;;5.18;77.55;100761.97;122169;1155;22733;-72
2021/04/17 04:49:03;;;;;;;20.43;16.65;;;;;;;5.16;77.66;100762.10;121988;1155;22541;-72
2021/04/17 04:51:32;;;;;;;19.03;16.20;;;;;;;5.16;77.74;100764.72;121652;1157;22553;-72
2021/04/17 04:54:00;;;;;;;20.35;16.50;;;;;;;5.17;77.65;100755.07;121188;1158;23349;-72
2021/04/17 04:56:28;;;;;;;20.30;16.70;;;;;;;5.17;77.77;100766.38;121424;1158;22632;-72
2021/04/17 04:58:57;;;;;;;22.73;18.05;;;;;;;5.16;77.74;100764.72;121478;1157;22560;-72
2021/04/17 05:01:25;;;;;;;19.97;17.87;;;;;;;5.17;77.78;100766.38;121086;1158;22641;-72
2021/04/17 05:03:53;;;;;;;25.98;18.85;;;;;;;5.18;77.81;100770.65;121009;1163;22589;-74
2021/04/17 05:06:22;;;;;;;26.85;19.70;;;;;;;5.19;77.94;100771.48;120919;1161;22616;-72
2021/04/17 05:08:50;;;;;;;24.53;18.83;;;;;;;5.21;77.93;100766.96;120960;1161;22642;-72
2021/04/17 05:11:19;;;;;;;29.38;20.50;;;;;;;5.22;77.93;100773.02;121061;1159;22631;-72
2021/04/17 05:13:47;;;;;;;25.35;18.00;;;;;;;5.22;77.84;100776.47;121242;1158;22624;-73
2021/04/17 05:16:15;;;;;;;23.25;19.73;;;;;;;5.23;77.76;100772.92;121509;1158;22599;-73
2021/04/17 05:18:44;;;;;;;28.88;20.52;;;;;;;5.26;77.88;100770.02;121454;1159;22618;-71
2021/04/17 05:21:12;;;;;;;31.75;21.40;;;;;;;5.28;77.96;100767.30;121515;1155;22873;-71
2021/04/17 05:23:40;;;;;;;26.95;22.40;;;;;;;5.31;77.99;100767.05;122007;1155;22546;-72
2021/04/17 05:26:11;;;;;;;26.18;23.20;;;;;;;5.32;77.65;100766.92;122088;1152;22914;-72
2021/04/17 05:28:39;;;;;;;30.03;24.93;;;;;;;5.34;77.88;100769.43;122208;1152;22551;-71
2021/04/17 05:31:07;;;;;;;49.05;39.90;;;;;;;5.35;77.73;100774.53;122003;1155;22560;-73
2021/04/17 05:33:36;;;;;;;60.65;47.93;;;;;;;5.36;77.74;100780.59;121988;1155;22555;-72
2021/04/17 05:36:05;;;;;;;37.88;33.53;;;;;;;5.36;77.60;100775.36;122013;1155;22557;-72
2021/04/17 05:38:34;;;;;;;28.57;25.70;;;;;;;5.36;77.62;100776.19;121734;1155;23306;-72
2021/04/17 05:41:03;;;;;;;40.38;36.10;;;;;;;5.34;77.55;100777.29;121985;1155;23069;-72
2021/04/17 05:43:32;;;;;;;29.10;25.15;;;;;;;5.31;77.47;100770.50;121955;1156;22546;-72
2021/04/17 05:46:00;;;;;;;33.38;30.00;;;;;;;5.31;77.41;100774.91;121989;1155;23471;-72
2021/04/17 05:48:28;;;;;;;32.58;28.08;;;;;;;5.29;77.44;100775.02;122001;1154;22544;-73
2021/04/17 05:50:58;;;;;;;34.55;30.88;;;;;;;5.29;77.14;100774.19;122384;1152;22541;-72
2021/04/17 05:53:26;;;;;;;34.53;30.97;;;;;;;5.30;77.75;100775.84;122403;1152;22672;-73
2021/04/17 05:55:54;;;;;;;35.90;32.10;;;;;;;5.29;77.32;100780.26;122396;1152;22527;-73
2021/04/17 05:58:23;;;;;;;35.88;32.03;;;;;;;5.31;77.48;100783.60;122178;1152;22529;-73
2021/04/17 06:00:51;;;;;;;33.90;30.33;;;;;;;5.32;77.84;100779.19;122433;1152;23378;-73
2021/04/17 06:03:19;;;;;;;35.00;29.93;;;;;;;5.33;77.73;100775.60;122220;1152;23432;-72
2021/04/17 06:05:51;;;;;;;32.13;28.73;;;;;;;5.35;77.90;100771.91;122189;1152;25257;-73
2021/04/17 06:08:19;;;;;;;32.25;29.03;;;;;;;5.37;77.88;100774.42;122369;1152;22527;-74
2021/04/17 06:10:47;;;;;;;33.23;27.98;;;;;;;5.39;77.97;100767.25;122394;1152;22596;-72
2021/04/17 06:13:15;;;;;;;34.03;29.55;;;;;;;5.40;77.85;100767.15;122441;1152;22526;-74
2021/04/17 06:15:45;;;;;;;32.75;29.35;;;;;;;5.42;77.97;100767.01;122105;1152;22529;-72
2021/04/17 06:18:13;;;;;;;35.08;31.68;;;;;;;5.41;77.78;100768.80;122162;1152;24377;-73
2021/04/17 06:20:42;;;;;;;43.58;37.13;;;;;;;5.44;77.89;100765.11;122375;1153;24670;-73
2021/04/17 06:23:10;;;;;;;33.03;29.78;;;;;;;5.47;77.95;100771.89;122163;1155;24438;-73
2021/04/17 06:25:38;;;;;;;35.03;31.25;;;;;;;5.50;78.00;100762.00;122206;1151;24676;-71
2021/04/17 06:28:06;;;;;;;36.63;30.40;;;;;;;5.51;77.83;100762.83;122342;1152;22538;-71
2021/04/17 06:30:35;;;;;;;35.03;31.18;;;;;;;5.54;78.02;100752.92;122377;1152;22536;-71
2021/04/17 06:33:03;;;;;;;37.30;29.58;;;;;;;5.61;78.10;100755.87;122327;1152;22676;-71
2021/04/17 06:35:32;;;;;;;29.70;25.60;;;;;;;5.68;78.16;100759.64;122400;1152;23317;-71
2021/04/17 06:38:00;;;;;;;31.57;25.43;;;;;;;5.78;78.21;100759.72;122144;1153;22527;-72
2021/04/17 06:40:28;;;;;;;28.00;24.95;;;;;;;5.85;77.98;100760.88;122393;1152;22617;-71
2021/04/17 06:43:03;;;;;;;28.73;23.83;;;;;;;5.88;77.67;100761.45;122133;1152;22588;-72
2021/04/17 06:45:36;;;;;;;30.48;24.55;;;;;;;5.91;77.61;100765.61;122263;1152;22541;-70
2021/04/17 06:48:10;;;;;;;30.10;26.93;;;;;;;5.88;77.31;100766.69;122388;1152;22582;-71
2021/04/17 06:50:39;;;;;;;28.33;25.27;;;;;;;5.84;77.30;100770.53;122392;1152;22532;-71
2021/04/17 06:53:10;;;;;;;27.13;23.80;;;;;;;5.81;77.13;100765.55;122125;1152;22560;-71
2021/04/17 06:55:38;;;;;;;29.48;26.48;;;;;;;5.78;76.94;100765.80;122354;1152;22534;-72
2021/04/17 06:58:07;;;;;;;32.23;28.88;;;;;;;5.76;77.06;100764.25;122170;1151;23464;-72
2021/04/17 07:00:35;;;;;;;30.63;27.18;;;;;;;5.74;76.83;100760.94;122232;1152;22538;-72
2021/04/17 07:03:04;;;;;;;35.55;28.63;;;;;;;5.72;77.08;100766.30;122166;1152;22583;-72
2021/04/17 07:05:33;;;;;;;32.30;29.10;;;;;;;5.72;77.06;100757.60;122056;1152;22723;-71
2021/04/17 07:08:02;;;;;;;32.38;29.15;;;;;;;5.70;77.21;100768.23;122184;1152;22635;-71
2021/04/17 07:10:31;;;;;;;31.58;28.35;;;;;;;5.67;77.01;100760.61;122172;1152;22540;-71
2021/04/17 07:13:10;;;;;;;29.45;26.08;;;;;;;5.66;77.20;100756.31;122155;1152;22526;-71
2021/04/17 07:15:41;;;;;;;29.98;26.95;;;;;;;5.64;77.02;100760.86;122094;1152;22542;-71
2021/04/17 07:18:31;;;;;;;28.13;25.30;;;;;;;5.66;77.23;100759.79;122456;1152;22541;-71
2021/04/17 07:21:21;;;;;;;28.65;25.60;;;;;;;5.74;77.53;100763.56;122414;1152;24680;-71
2021/04/17 07:23:50;;;;;;;27.10;24.40;;;;;;;5.76;77.36;100762.45;122427;1152;24694;-70
2021/04/17 07:26:27;;;;;;;23.28;20.85;;;;;;;5.79;77.08;100759.58;122351;1152;22591;-71
2021/04/17 07:29:14;;;;;;;26.25;23.63;;;;;;;5.79;77.14;100756.13;122477;1152;23048;-71
2021/04/17 07:31:53;;;;;;;25.45;22.15;;;;;;;5.78;77.14;100764.97;122411;1152;22620;-71
2021/04/17 07:34:24;;;;;;;22.43;20.20;;;;;;;5.80;77.14;100757.82;122367;1152;24417;-71
2021/04/17 07:36:59;;;;;;;21.60;18.90;;;;;;;5.83;77.32;100753.16;122438;1150;22580;-72
2021/04/17 07:39:42;;;;;;;23.02;20.55;;;;;;;5.86;77.05;100752.04;122374;1152;22525;-70
2021/04/17 07:42:15;;;;;;;23.93;21.50;;;;;;;5.85;77.07;100750.39;122381;1151;23294;-70
2021/04/17 07:44:48;;;;;;;23.75;20.88;;;;;;;5.86;77.09;100758.14;122515;1152;22576;-72
2021/04/17 07:47:34;;;;;;;27.55;23.02;;;;;;;5.88;76.96;100755.38;122424;1152;22528;-71
2021/04/17 07:50:12;;;;;;;24.10;21.60;;;;;;;5.89;76.89;100762.27;122366;1151;22945;-71
2021/04/17 07:52:44;;;;;;;24.95;22.25;;;;;;;5.89;76.83;100762.27;122419;1152;24429;-72
2021/04/17 07:55:18;;;;;;;24.23;21.38;;;;;;;5.92;77.03;100758.58;122132;1152;24664;-71
2021/04/17 07:57:55;;;;;;;27.23;24.30;;;;;;;5.95;77.07;100760.98;122243;1152;22524;-71
2021/04/17 08:00:27;;;;;;;29.23;25.53;;;;;;;5.97;76.93;100759.89;122434;1152;22614;-71
2021/04/17 08:02:57;;;;;;;21.63;19.30;;;;;;;6.00;76.91;100770.13;122351;1152;22533;-70
2021/04/17 08:05:27;;;;;;;26.68;21.18;;;;;;;6.04;77.12;100775.95;122340;1152;22553;-71
2021/04/17 08:07:58;;;;;;;22.73;20.35;;;;;;;6.07;76.89;100768.66;122492;1152;24711;-73
2021/04/17 08:10:27;;;;;;;25.23;20.50;;;;;;;6.07;76.71;100781.77;122196;1153;24763;-71
2021/04/17 08:13:03;;;;;;;24.20;21.03;;;;;;;6.08;76.86;100775.55;122389;1153;22521;-73
2021/04/17 08:15:32;;;;;;;25.10;22.23;;;;;;;6.10;76.74;100773.65;122418;1152;22524;-73
2021/04/17 08:18:04;;;;;;;31.18;25.58;;;;;;;6.15;76.93;100777.67;122457;1152;22524;-73
2021/04/17 08:20:32;;;;;;;;;;;;;;;6.11;76.43;100771.86;122397;1155;22873;-73
2021/04/17 08:23:01;;;;;;;27.90;25.08;;;;;;;6.11;76.93;100774.47;122428;1152;21339;-73
2021/04/17 08:25:32;;;;;;;30.38;22.15;;;;;;;6.12;76.81;100774.33;122384;1152;22519;-72
2021/04/17 08:28:01;;;;;;;26.68;22.53;;;;;;;6.17;76.73;100770.52;122387;1152;24999;-72
2021/04/17 08:30:29;;;;;;;24.43;19.83;;;;;;;6.23;76.63;100776.08;122387;1152;22717;-73
2021/04/17 08:33:21;;;;;;;24.20;21.80;;;;;;;6.27;76.96;100768.78;122406;1152;25159;-73
2021/04/17 08:35:50;;;;;;;28.45;25.45;;;;;;;6.33;76.97;100765.61;122192;1152;23573;-73
2021/04/17 08:38:18;;;;;;;26.07;22.37;;;;;;;6.41;76.83;100771.05;121987;1154;24734;-73
2021/04/17 08:40:52;;;;;;;26.58;23.05;;;;;;;6.49;76.75;100773.02;122010;1154;25176;-73
2021/04/17 08:43:27;;;;;;;24.47;22.10;;;;;;;6.48;76.63;100769.56;122053;1155;22552;-72
2021/04/17 08:46:13;;;;;;;25.40;22.80;;;;;;;6.54;76.60;100773.47;122010;1155;22540;-73
2021/04/17 08:49:04;;;;;;;29.78;22.93;;;;;;;6.60;76.33;100765.08;121966;1155;25167;-73
2021/04/17 08:51:36;;;;;;;32.60;29.07;;;;;;;6.70;76.79;100767.74;121879;1155;25183;-73
2021/04/17 08:54:08;;;;;;;31.05;27.83;;;;;;;6.82;76.89;100762.23;122013;1155;22963;-73
2021/04/17 08:57:17;;;;;;;28.20;25.28;;;;;;;6.95;76.70;100769.05;122054;1155;24704;-74
2021/04/17 09:00:07;;;;;;;27.75;24.73;;;;;;;7.13;76.88;100764.83;121893;1155;22661;-73
2021/04/17 09:02:46;;;;;;;26.85;22.68;;;;;;;7.23;76.40;100759.56;122195;1152;24777;-73
2021/04/17 09:05:17;;;;;;;25.35;22.63;;;;;;;7.33;75.98;100765.69;122456;1152;24716;-72
2021/04/17 09:07:47;;;;;;;24.63;21.98;;;;;;;7.39;75.72;100759.86;122394;1153;24426;-73
2021/04/17 09:10:35;;;;;;;28.35;22.50;;;;;;;7.44;75.42;100767.35;122258;1152;22923;-73
2021/04/17 09:13:10;;;;;;;22.90;20.57;;;;;;;7.47;75.26;100767.91;122569;1153;22545;-71
2021/04/17 09:16:05;;;;;;;23.30;20.73;;;;;;;7.48;74.75;100764.30;122132;1154;22543;-72
2021/04/17 09:18:33;;;;;;;23.93;20.63;;;;;;;7.44;74.63;100768.17;122207;1152;24677;-71
2021/04/17 09:21:07;;;;;;;24.15;21.58;;;;;;;7.42;74.36;100767.47;122195;1154;22624;-71
2021/04/17 09:23:46;;;;;;;23.93;21.40;;;;;;;7.44;74.22;100772.61;122358;1152;22529;-74
2021/04/17 09:26:30;;;;;;;22.93;19.95;;;;;;;7.42;74.14;100771.91;122152;1152;24677;-70
2021/04/17 09:29:12;;;;;;;21.33;18.10;;;;;;;7.40;74.13;100774.69;122203;1152;22528;-71
2021/04/17 09:31:40;;;;;;;21.13;18.95;;;;;;;7.35;73.95;100778.68;122403;1152;22905;-71
2021/04/17 09:34:14;;;;;;;19.60;17.60;;;;;;;7.29;74.03;100772.98;122152;1153;22688;-70
2021/04/17 09:36:45;;;;;;;19.90;17.83;;;;;;;7.26;73.87;100775.05;122431;1151;23342;-71
2021/04/17 09:39:26;;;;;;;25.60;19.80;;;;;;;7.23;73.88;100770.06;122120;1152;25210;-71
2021/04/17 09:42:01;;;;;;;23.60;20.20;;;;;;;7.21;73.96;100766.77;122518;1151;22511;-71
2021/04/17 09:44:47;;;;;;;22.73;20.25;;;;;;;7.23;74.08;100765.67;122295;1150;22527;-71
2021/04/17 09:47:18;;;;;;;22.90;18.80;;;;;;;7.26;74.20;100761.91;122296;1152;22511;-73
2021/04/17 09:49:49;;;;;;;22.68;19.25;;;;;;;7.34;74.49;100769.97;122235;1152;22526;-71
2021/04/17 09:52:22;;;;;;;21.55;19.18;;;;;;;7.39;74.07;100766.91;122422;1152;22528;-72
2021/04/17 09:55:05;;;;;;;23.90;20.35;;;;;;;7.37;74.01;100769.70;122255;1152;22523;-72
2021/04/17 09:57:33;;;;;;;24.25;21.65;;;;;;;7.43;74.10;100770.92;122174;1152;22559;-72
2021/04/17 10:00:05;;;;;;;22.33;20.03;;;;;;;7.46;73.81;100768.02;122328;1152;22441;-71
2021/04/17 10:02:44;;;;;;;23.18;20.50;;;;;;;7.46;73.67;100770.66;122347;1152;24005;-70
2021/04/17 10:05:16;;;;;;;23.95;20.60;;;;;;;7.46;73.55;100770.66;122210;1152;24670;-71
2021/04/17 10:07:53;;;;;;;23.60;20.83;;;;;;;7.49;73.40;100771.20;122417;1153;24663;-71
2021/04/17 10:10:22;;;;;;;22.93;20.33;;;;;;;7.49;73.31;100755.44;122186;1152;24687;-72
2021/04/17 10:12:55;;;;;;;24.73;22.43;;;;;;;7.55;73.81;100760.14;122376;1152;23307;-71
2021/04/17 10:15:36;;;;;;;25.48;22.78;;;;;;;7.62;73.53;100759.59;121955;1155;22540;-71
2021/04/17 10:18:06;;;;;;;25.98;23.13;;;;;;;7.62;73.07;100756.97;121794;1155;22648;-70
2021/04/17 10:20:35;;;;;;;25.40;22.47;;;;;;;7.58;72.91;100760.85;121966;1155;23333;-71
2021/04/17 10:23:04;;;;;;;29.83;26.98;;;;;;;7.59;73.21;100758.07;121680;1155;22787;-71
2021/04/17 10:25:35;;;;;;;26.77;23.80;;;;;;;7.62;72.91;100767.48;121981;1156;22655;-71
2021/04/17 10:28:16;;;;;;;26.20;23.53;;;;;;;7.62;72.95;100755.16;122000;1155;22554;-71
2021/04/17 10:30:57;;;;;;;28.70;25.73;;;;;;;7.61;72.71;100764.03;121988;1155;25183;-71
2021/04/17 10:33:28;;;;;;;27.58;24.43;;;;;;;7.59;72.75;100754.61;122105;1152;22533;-71
2021/04/17 10:36:00;;;;;;;27.50;24.53;;;;;;;7.55;72.52;100765.41;122530;1153;22517;-70
2021/04/17 10:38:41;;;;;;;26.45;23.75;;;;;;;7.53;72.70;100766.50;122503;1152;22520;-72
2021/04/17 10:41:14;;;;;;;28.70;25.50;;;;;;;7.53;72.84;100762.10;122461;1152;22514;-71
2021/04/17 10:43:42;;;;;;;27.23;24.53;;;;;;;7.55;72.77;100761.95;122325;1152;22534;-71
2021/04/17 10:46:10;;;;;;;28.53;25.60;;;;;;;7.56;72.94;100766.23;122452;1151;22520;-71
2021/04/17 10:48:45;;;;;;;29.43;26.45;;;;;;;7.57;73.11;100767.91;122420;1152;22596;-70
2021/04/17 10:51:17;;;;;;;28.03;25.10;;;;;;;7.63;73.35;100763.88;122423;1152;22540;-70
2021/04/17 10:53:48;;;;;;;29.20;26.50;;;;;;;7.67;73.29;100765.28;122470;1152;24704;-70
2021/04/17 10:56:20;;;;;;;32.17;28.97;;;;;;;7.69;73.46;100763.33;122403;1152;22536;-69
2021/04/17 10:59:04;;;;;;;32.28;28.83;;;;;;;7.71;73.64;100764.03;122410;1153;22607;-71
2021/04/17 11:01:37;;;;;;;32.98;28.63;;;;;;;7.75;73.87;100766.23;122306;1153;22537;-71
2021/04/17 11:04:06;;;;;;;35.83;32.08;;;;;;;7.77;73.58;100768.74;122465;1152;22531;-71
2021/04/17 11:06:39;;;;;;;37.93;32.15;;;;;;;7.79;73.93;100761.52;122333;1152;22617;-72
2021/04/17 11:09:14;;;;;;;29.73;26.70;;;;;;;7.82;73.89;100763.88;122369;1152;22528;-71
2021/04/17 11:11:59;;;;;;;29.85;26.73;;;;;;;7.86;73.98;100761.80;122470;1154;22543;-71
2021/04/17 11:14:30;;;;;;;36.40;31.35;;;;;;;7.91;74.14;100768.30;122425;1154;25179;-71
2021/04/17 11:16:58;;;;;;;50.45;36.05;;;;;;;7.96;74.29;100763.47;122434;1152;22527;-71
2021/04/17 11:19:32;;;;;;;35.53;31.65;;;;;;;8.05;74.19;100764.41;122384;1152;22522;-71
2021/04/17 11:22:13;;;;;;;35.40;31.65;;;;;;;8.10;74.06;100766.63;122351;1152;22524;-71
2021/04/17 11:25:06;;;;;;;34.28;30.63;;;;;;;8.13;73.87;100767.17;122195;1152;22527;-72
2021/04/17 11:27:35;;;;;;;33.13;29.73;;;;;;;8.12;73.72;100762.03;122421;1152;22522;-71
2021/04/17 11:30:07;;;;;;;34.48;30.90;;;;;;;8.14;73.99;100766.20;122436;1152;22522;-73